METAR stanice u blizini

 

LYBE - Beograd / Surčin, Srbija
Ažurirano: 05/07/2022 14:30
Vedro
Vedro
 Pravac vetra ZSZ
Vetar: ZSZ 20 km/h
Temperatura: 34°C
Tačka rose: 18°C
Vlažnost: 39%
Pritisak: 1012 hPa
Pregled: Vedro
Vidljivost: greater than 10 km
2022/07/05 12:30 LYBE 051230Z 29011KT 260V330 CAVOK 34/18 Q1012 NOSIG
LYBT - Beograd / Batajnica, Srbija
Ažurirano: 05/07/2022 14:30
Vedro
Vedro
 Pravac vetra SZ
Vetar: SZ 17 km/h
Temperatura: 35°C
Tačka rose: 19°C
Vlažnost: 39%
Pritisak: 1012 hPa
Pregled: Vedro
Vidljivost: greater than 10 km
2022/07/05 12:30 LYBT 051230Z 31009KT 260V350 CAVOK 35/19 Q1012 NOSIG
LYVR - Vršac, Srbija
Ažurirano: 05/07/2022 14:30
Few Clouds
Few Clouds
 Pravac vetra ZJZ
Vetar: ZJZ 6 km/h, Maks.: 26 km/h
Temperatura: 36°C
Tačka rose: 12°C
Vlažnost: 23%
Pritisak: 1012 hPa
Oblaci: Few Clouds
Vidljivost: 10 km
Cloud details: Few Clouds 1219 m
2022/07/05 12:30 LYVR 051230Z 24003G14KT 9999 FEW040 36/12 Q1012 NOSIG
 
LYKV - Lađevci, Srbija
Ažurirano: 05/07/2022 14:30
Partly Cloudy
Partly Cloudy
 Pravac vetra I
Vetar: I 7 km/h
Temperatura: 35°C
Tačka rose: 17°C
Vlažnost: 34%
Pritisak: 1012 hPa
Oblaci: Partly Cloudy
Vidljivost: 10 km
Cloud details: Partly Cloudy 1372 m
2022/07/05 12:30 LYKV 051230Z 09004KT 350V160 9999 SCT045 35/17 Q1012 NOSIG
LYNI - Niš, Srbija
Ažurirano: 05/07/2022 14:30
Few Clouds
Few Clouds
 Pravac vetra varies
Vetar: varies 2 km/h
Temperatura: 34°C
Tačka rose: 12°C
Vlažnost: 26%
Pritisak: 1012 hPa
Oblaci: Few Clouds
Vidljivost: 10 km
Cloud details: Few Clouds 1524 m
2022/07/05 12:30 LYNI 051230Z VRB01KT 9999 FEW050 34/12 Q1012 NOSIG
BKPR - Priština, Srbija
Ažurirano: 05/07/2022 15:00
Partly Cloudy
Partly Cloudy
 Pravac vetra JJI
Vetar: JJI 13 km/h
Temperatura: 31°C
Heat Index: 32°C
Tačka rose: 17°C
Vlažnost: 43%
Pritisak: 1014 hPa
Oblaci: Partly Cloudy
Vidljivost: 10 km
Cloud details: Few Clouds 914 m
Partly Cloudy 1524 m
2022/07/05 13:00 BKPR 051300Z 15007KT 9999 FEW030TCU SCT050 31/17 Q1014 NOSIG
 
LHPP - Pecs / Pogany, Hungary
Ažurirano: 05/07/2022 14:15
Vedro
Vedro
 Pravac vetra SSZ
Vetar: SSZ 13 km/h
Temperatura: 26°C
Tačka rose: 18°C
Vlažnost: 61%
Pritisak: 1016 hPa
Pregled: Vedro
Vidljivost: greater than 10 km
2022/07/05 12:15 LHPP 051215Z AUTO 34007KT 300V030 CAVOK 26/18 Q1016
LHUD - Szeged, Hungary
Ažurirano: 04/07/2019 01:45
NOT Current
Vedro
Vedro
 Pravac vetra S
Vetar: S 7 km/h
Temperatura: 18°C
Tačka rose: 13°C
Vlažnost: 73%
Pritisak: 1019 hPa
Pregled: Vedro
Vidljivost: greater than 10 km
2019/07/03 23:45 LHUD 032345Z 35004KT CAVOK 18/13 Q1019
LRTR - Timisoara, Romania
Ažurirano: 05/07/2022 14:30
Vedro
Vedro
 Pravac vetra JZ
Vetar: JZ 17 km/h
Temperatura: 36°C
Tačka rose: 11°C
Vlažnost: 22%
Pritisak: 1011 hPa
Pregled: Vedro
Vidljivost: greater than 10 km
2022/07/05 12:30 LRTR 051230Z 23009KT 200V260 CAVOK 36/11 Q1011 NOSIG
 
LRCV - Craiova, Romania
Ažurirano: 05/07/2022 14:30
Few Clouds
Few Clouds
 Pravac vetra JJZ
Vetar: JJZ 13 km/h
Temperatura: 34°C
Tačka rose: 15°C
Vlažnost: 32%
Pritisak: 1013 hPa
Oblaci: Few Clouds
Vidljivost: 10 km
Cloud details: Few Clouds 1676 m
2022/07/05 12:30 LRCV 051230Z 21007KT 170V240 9999 FEW055CB 34/15 Q1013
LBSF - Sofia, Bulgaria
Ažurirano: 05/07/2022 14:30
Few Clouds
Few Clouds
 Pravac vetra IJI
Vetar: IJI 15 km/h
Temperatura: 30°C
Tačka rose: 14°C
Vlažnost: 38%
Pritisak: 1015 hPa
Oblaci: Few Clouds
Vidljivost: 10 km
Cloud details: Few Clouds 2195 m
2022/07/05 12:30 LBSF 051230Z 11008KT 060V170 9999 FEW072 30/14 Q1015 NOSIG
LWSK - Skoplje, Makedonija
Ažurirano: 05/07/2022 14:30
Few Clouds
Few Clouds
 Pravac vetra varies
Vetar: varies 4 km/h
Temperatura: 36°C
Tačka rose: 13°C
Vlažnost: 25%
Pritisak: 1013 hPa
Oblaci: Few Clouds
Vidljivost: 10 km
Cloud details: Few Clouds 1219 m
2022/07/05 12:30 LWSK 051230Z VRB02KT 9999 FEW040 36/13 Q1013 NOSIG
 
LYPG - Podgorica, Crna Gora
Ažurirano: 05/07/2022 14:30
Few Clouds
Few Clouds
 Pravac vetra JJI
Vetar: JJI 19 km/h
Temperatura: 38°C
Tačka rose: 15°C
Vlažnost: 25%
Pritisak: 1011 hPa
Oblaci: Few Clouds
Vidljivost: 10 km
Cloud details: Few Clouds 1524 m
2022/07/05 12:30 LYPG 051230Z 16010KT 140V220 9999 FEW050 38/15 Q1011 NOSIG
LQSA - Sarajevo, Bosna i Hercegovina
Ažurirano: 05/07/2022 14:30
Nearby thunderstorm, Pretežno oblačno
Nearby thunderstorm, Pretežno oblačno
 Pravac vetra SZ
Vetar: SZ 20 km/h
Temperatura: 28°C
Heat Index: 27°C
Tačka rose: 13°C
Vlažnost: 40%
Pritisak: 1014 hPa
Pregled: Nearby Thunderstorm
Oblaci: Mostly Cloudy
Vidljivost: 10 km
Cloud details: Few Clouds 1067 m
Few Clouds 1219 m
Mostly Cloudy 1524 m
2022/07/05 12:30 LQSA 051230Z 32011KT 270V020 9999 VCTS FEW035CB FEW040TCU BKN050 28/13 Q1014 TEMPO TSRA
LDOS - Osijek, Hrvatksa
Ažurirano: 05/07/2022 14:30
Vedro
Vedro
 Pravac vetra SSZ
Vetar: SSZ 22 km/h
Temperatura: 29°C
Heat Index: 29°C
Tačka rose: 18°C
Vlažnost: 51%
Pritisak: 1014 hPa
Pregled: Vedro
Vidljivost: greater than 10 km
2022/07/05 12:30 LDOS 051230Z 34012KT CAVOK 29/18 Q1014